Skip Navigation Links Skip Navigation Links

Current Weather

Archangel'Sk, Archangel, Russia

For information only: do not use for flight planning or navigation.
Latest weather
Observation time Friday, February 21, 2020 12:30 PM MSK
Local time Friday, February 21, 2020 12:53 PM MSK
Flight conditions Visual Meteorological Conditions
Winds
Wind direction South (180°)
Winds variable from 150° to 210°
Wind speed 11 mph
Visibility 6.2 mi.
Sky condition
Ceiling unlimited
Cloud layer scattered clouds 3,000 ft.
Temperature 27°F
Dewpoint 19°F
Altimeter 29.85 in.Hg
Precipitation
QF 12:37 AM
Derived measurements
Relative humidity 74%
Wind chill 16°F
Density altitude -2053 ft.
Remarks
No significant changes expected in the next two hours.
METAR ULAA 210930Z 18005MPS 150V210 9999 SCT030 M03/M07 Q1011 R08/920556 NOSIG RMK QFE757/1009

Settings

Location code

InnerDrive.Weather 4.0.6770.0 Release CLR 4.0.30319.42000
Copyright ©2018 Inner Drive Technology. All rights reserved. Portions Copyright ©1986-2018 David Braverman.

Find weather

Site navigation


Skip Navigation Links

Place info

Page info

PayPal - The safer, easier way to pay online!

Return home.

Copyright ©2020 Inner Drive Technology. Purveyors of fine, hand-crafted computer software. Page printed 2020-02-21T09:53:51 UTC.